Time,TemperatureF,DewpointF,PressureIn,WindDirection,WindDirectionDegrees,WindSpeedMPH,WindSpeedGustMPH,Humidity,HourlyPrecipIn,Conditions,Clouds,dailyrainin,SoftwareType,DateUTC
2013-03-04 00:05:00,18.9,18.4,29.68,North,0,3.8,-999.0,98,-99.99,,,0.00,Acu-Link.com,2013-03-04 05:05:00,
2013-03-04 00:20:00,18.7,18.2,29.68,North,0,2.7,-999.0,98,-99.99,,,0.00,Acu-Link.com,2013-03-04 05:20:00,
2013-03-04 00:35:00,18.3,17.9,29.69,North,0,2.2,-999.0,98,-99.99,,,0.00,Acu-Link.com,2013-03-04 05:35:00,
2013-03-04 00:50:00,18.0,17.5,29.69,North,0,1.6,-999.0,98,-99.99,,,0.00,Acu-Link.com,2013-03-04 05:50:00,
2013-03-04 01:06:00,17.4,17.0,29.68,North,0,2.7,-999.0,98,-99.99,,,0.00,Acu-Link.com,2013-03-04 06:06:00,
2013-03-04 01:21:00,17.2,16.8,29.68,North,0,0.0,-999.0,98,-99.99,,,0.00,Acu-Link.com,2013-03-04 06:21:00,
2013-03-04 01:36:00,17.6,17.1,29.69,North,0,2.7,-999.0,98,-99.99,,,0.00,Acu-Link.com,2013-03-04 06:36:00,
2013-03-04 01:51:00,17.6,17.1,29.68,North,0,1.1,-999.0,98,-99.99,,,0.00,Acu-Link.com,2013-03-04 06:51:00,
2013-03-04 02:06:00,17.6,17.1,29.68,North,0,2.7,-999.0,98,-99.99,,,0.00,Acu-Link.com,2013-03-04 07:06:00,
2013-03-04 02:22:00,17.6,17.1,29.69,North,0,0.0,-999.0,98,-99.99,,,0.00,Acu-Link.com,2013-03-04 07:22:00,
2013-03-04 02:37:00,17.4,17.0,29.69,North,0,3.1,-999.0,98,-99.99,,,0.00,Acu-Link.com,2013-03-04 07:37:00,
2013-03-04 02:52:00,17.6,17.1,29.69,North,0,3.1,-999.0,98,-99.99,,,0.00,Acu-Link.com,2013-03-04 07:52:00,
2013-03-04 03:07:00,17.6,17.1,29.69,North,0,2.7,-999.0,98,-99.99,,,0.00,Acu-Link.com,2013-03-04 08:07:00,
2013-03-04 03:23:00,17.6,17.1,29.69,North,0,2.2,-999.0,98,-99.99,,,0.00,Acu-Link.com,2013-03-04 08:23:00,
2013-03-04 03:38:00,17.2,16.8,29.68,North,0,0.0,-999.0,98,-99.99,,,0.00,Acu-Link.com,2013-03-04 08:38:00,
2013-03-04 03:53:00,17.1,16.6,29.68,North,0,2.2,-999.0,98,-99.99,,,0.00,Acu-Link.com,2013-03-04 08:53:00,
2013-03-04 04:20:00,16.9,16.4,29.68,North,0,0.0,-999.0,98,-99.99,,,0.00,Acu-Link.com,2013-03-04 09:20:00,
2013-03-04 04:35:00,16.5,16.1,29.69,North,0,2.2,-999.0,98,-99.99,,,0.00,Acu-Link.com,2013-03-04 09:35:00,
2013-03-04 04:50:00,16.2,15.7,29.70,North,0,4.7,-999.0,98,-99.99,,,0.00,Acu-Link.com,2013-03-04 09:50:00,
2013-03-04 05:05:00,16.2,15.7,29.71,North,0,2.2,-999.0,98,-99.99,,,0.00,Acu-Link.com,2013-03-04 10:05:00,
2013-03-04 05:20:00,16.2,15.7,29.70,North,0,3.8,-999.0,98,-99.99,,,0.00,Acu-Link.com,2013-03-04 10:20:00,
2013-03-04 05:36:00,16.2,15.7,29.71,SW,225,0.0,-999.0,98,-99.99,,,0.00,Acu-Link.com,2013-03-04 10:36:00,
2013-03-04 05:51:00,16.2,15.7,29.70,SW,225,0.0,-999.0,98,-99.99,,,0.00,Acu-Link.com,2013-03-04 10:51:00,
2013-03-04 06:06:00,16.2,15.7,29.70,SW,225,0.0,-999.0,98,-99.99,,,0.00,Acu-Link.com,2013-03-04 11:06:00,
2013-03-04 06:21:00,16.2,15.7,29.70,North,0,0.0,-999.0,98,-99.99,,,0.00,Acu-Link.com,2013-03-04 11:21:00,
2013-03-04 06:36:00,15.8,15.3,29.70,SE,135,3.8,-999.0,98,-99.99,,,0.00,Acu-Link.com,2013-03-04 11:36:00,
2013-03-04 06:52:00,15.8,15.3,29.71,ESE,112,0.0,-999.0,98,-99.99,,,0.00,Acu-Link.com,2013-03-04 11:52:00,
2013-03-04 07:07:00,15.8,15.3,29.71,North,0,3.8,-999.0,98,-99.99,,,0.00,Acu-Link.com,2013-03-04 12:07:00,
2013-03-04 07:22:00,16.2,14.5,29.72,North,0,2.7,-999.0,93,-99.99,,,0.00,Acu-Link.com,2013-03-04 12:22:00,
2013-03-04 07:37:00,16.5,14.1,29.72,North,0,9.4,-999.0,90,-99.99,,,0.00,Acu-Link.com,2013-03-04 12:37:00,
2013-03-04 08:08:00,16.5,14.1,29.71,North,0,9.4,-999.0,90,-99.99,,,0.00,Acu-Link.com,2013-03-04 13:08:00,
2013-03-04 08:23:00,16.5,14.1,29.72,North,0,9.4,-999.0,90,-99.99,,,0.00,Acu-Link.com,2013-03-04 13:23:00,
2013-03-04 08:38:00,19.4,14.5,29.72,SSW,202,1.1,-999.0,81,-99.99,,,0.00,Acu-Link.com,2013-03-04 13:38:00,
2013-03-04 08:53:00,19.6,14.1,29.72,North,0,3.8,-999.0,79,-99.99,,,0.00,Acu-Link.com,2013-03-04 13:53:00,
2013-03-04 09:09:00,20.5,14.1,29.72,North,0,2.7,-999.0,76,-99.99,,,0.00,Acu-Link.com,2013-03-04 14:09:00,
2013-03-04 09:24:00,21.2,14.5,29.72,SSE,157,4.3,-999.0,75,-99.99,,,0.00,Acu-Link.com,2013-03-04 14:24:00,
2013-03-04 09:39:00,22.6,15.3,29.71,SW,225,4.7,-999.0,73,-99.99,,,0.00,Acu-Link.com,2013-03-04 14:39:00,
2013-03-04 09:54:00,21.9,14.6,29.72,North,0,5.1,-999.0,73,-99.99,,,0.00,Acu-Link.com,2013-03-04 14:54:00,
2013-03-04 10:09:00,24.3,15.9,29.72,North,0,3.1,-999.0,70,-99.99,,,0.00,Acu-Link.com,2013-03-04 15:09:00,
2013-03-04 10:25:00,23.7,15.7,29.73,WSW,247,1.6,-999.0,71,-99.99,,,0.00,Acu-Link.com,2013-03-04 15:25:00,
2013-03-04 10:40:00,25.9,16.8,29.72,SSW,202,2.2,-999.0,68,-99.99,,,0.00,Acu-Link.com,2013-03-04 15:40:00,